sensor_id;sensor_type;location;lat;lon;timestamp;P1;durP1;ratioP1;P2;durP2;ratioP2
2644;SDS011;15377;48.540;9.268;2023-08-21T00:00:12;17.37;;;14.53;;
2644;SDS011;15377;48.540;9.268;2023-08-21T00:02:39;20.93;;;14.33;;
2644;SDS011;15377;48.540;9.268;2023-08-21T00:05:04;17.03;;;13.10;;
2644;SDS011;15377;48.540;9.268;2023-08-21T00:07:31;21.60;;;14.10;;
2644;SDS011;15377;48.540;9.268;2023-08-21T00:09:56;18.37;;;13.03;;
2644;SDS011;15377;48.540;9.268;2023-08-21T00:12:21;20.30;;;13.20;;
2644;SDS011;15377;48.540;9.268;2023-08-21T00:14:47;17.20;;;13.10;;
2644;SDS011;15377;48.540;9.268;2023-08-21T00:17:12;17.90;;;12.87;;
2644;SDS011;15377;48.540;9.268;2023-08-21T00:19:38;17.40;;;12.87;;
2644;SDS011;15377;48.540;9.268;2023-08-21T00:22:03;17.57;;;12.57;;
2644;SDS011;15377;48.540;9.268;2023-08-21T00:24:29;14.97;;;11.80;;
2644;SDS011;15377;48.540;9.268;2023-08-21T00:26:54;17.33;;;12.97;;
2644;SDS011;15377;48.540;9.268;2023-08-21T00:29:19;19.23;;;13.63;;
2644;SDS011;15377;48.540;9.268;2023-08-21T00:31:45;16.20;;;13.00;;
2644;SDS011;15377;48.540;9.268;2023-08-21T00:34:10;18.47;;;12.67;;
2644;SDS011;15377;48.540;9.268;2023-08-21T00:36:36;19.93;;;14.50;;
2644;SDS011;15377;48.540;9.268;2023-08-21T00:39:01;19.30;;;13.00;;
2644;SDS011;15377;48.540;9.268;2023-08-21T00:41:27;16.50;;;13.00;;
2644;SDS011;15377;48.540;9.268;2023-08-21T00:43:52;19.73;;;12.90;;
2644;SDS011;15377;48.540;9.268;2023-08-21T00:46:17;19.43;;;13.13;;
2644;SDS011;15377;48.540;9.268;2023-08-21T00:48:43;17.80;;;13.07;;
2644;SDS011;15377;48.540;9.268;2023-08-21T00:51:09;16.43;;;12.30;;
2644;SDS011;15377;48.540;9.268;2023-08-21T00:53:36;18.00;;;13.10;;
2644;SDS011;15377;48.540;9.268;2023-08-21T00:56:02;18.60;;;13.40;;
2644;SDS011;15377;48.540;9.268;2023-08-21T00:58:28;19.30;;;12.63;;
2644;SDS011;15377;48.540;9.268;2023-08-21T01:00:53;23.50;;;13.27;;
2644;SDS011;15377;48.540;9.268;2023-08-21T01:03:19;16.70;;;12.50;;
2644;SDS011;15377;48.540;9.268;2023-08-21T01:05:44;16.20;;;12.50;;
2644;SDS011;15377;48.540;9.268;2023-08-21T01:11:13;18.87;;;12.80;;
2644;SDS011;15377;48.540;9.268;2023-08-21T01:13:49;16.17;;;11.93;;
2644;SDS011;15377;48.540;9.268;2023-08-21T01:16:24;14.93;;;12.03;;
2644;SDS011;15377;48.540;9.268;2023-08-21T01:18:50;14.80;;;10.80;;
2644;SDS011;15377;48.540;9.268;2023-08-21T01:21:19;18.60;;;12.80;;
2644;SDS011;15377;48.540;9.268;2023-08-21T01:23:44;17.07;;;12.27;;
2644;SDS011;15377;48.540;9.268;2023-08-21T01:26:10;16.60;;;12.10;;
2644;SDS011;15377;48.540;9.268;2023-08-21T01:28:35;17.83;;;13.00;;
2644;SDS011;15377;48.540;9.268;2023-08-21T01:34:00;14.57;;;10.97;;
2644;SDS011;15377;48.540;9.268;2023-08-21T01:36:29;15.73;;;12.83;;
2644;SDS011;15377;48.540;9.268;2023-08-21T01:38:56;14.67;;;11.70;;
2644;SDS011;15377;48.540;9.268;2023-08-21T01:41:25;16.77;;;13.30;;
2644;SDS011;15377;48.540;9.268;2023-08-21T01:43:50;17.70;;;13.10;;
2644;SDS011;15377;48.540;9.268;2023-08-21T01:46:16;15.03;;;12.00;;
2644;SDS011;15377;48.540;9.268;2023-08-21T01:48:41;17.70;;;13.07;;
2644;SDS011;15377;48.540;9.268;2023-08-21T01:51:06;17.33;;;12.73;;
2644;SDS011;15377;48.540;9.268;2023-08-21T01:53:32;17.70;;;13.17;;
2644;SDS011;15377;48.540;9.268;2023-08-21T01:55:57;19.70;;;13.20;;
2644;SDS011;15377;48.540;9.268;2023-08-21T01:58:22;16.10;;;12.80;;
2644;SDS011;15377;48.540;9.268;2023-08-21T02:00:48;17.10;;;13.17;;
2644;SDS011;15377;48.540;9.268;2023-08-21T02:03:13;17.80;;;12.80;;
2644;SDS011;15377;48.540;9.268;2023-08-21T02:05:39;20.70;;;12.37;;
2644;SDS011;15377;48.540;9.268;2023-08-21T02:08:05;17.37;;;13.17;;
2644;SDS011;15377;48.540;9.268;2023-08-21T02:10:32;18.30;;;12.43;;
2644;SDS011;15377;48.540;9.268;2023-08-21T02:12:57;18.43;;;13.03;;
2644;SDS011;15377;48.540;9.268;2023-08-21T02:15:23;16.10;;;11.67;;
2644;SDS011;15377;48.540;9.268;2023-08-21T02:17:48;15.10;;;12.07;;
2644;SDS011;15377;48.540;9.268;2023-08-21T02:20:13;15.40;;;12.03;;
2644;SDS011;15377;48.540;9.268;2023-08-21T02:22:39;15.17;;;11.93;;
2644;SDS011;15377;48.540;9.268;2023-08-21T02:25:05;17.70;;;12.40;;
2644;SDS011;15377;48.540;9.268;2023-08-21T02:27:30;15.33;;;12.20;;
2644;SDS011;15377;48.540;9.268;2023-08-21T02:29:55;24.33;;;13.23;;
2644;SDS011;15377;48.540;9.268;2023-08-21T02:32:21;18.10;;;13.70;;
2644;SDS011;15377;48.540;9.268;2023-08-21T02:34:46;17.00;;;12.83;;
2644;SDS011;15377;48.540;9.268;2023-08-21T02:37:12;17.17;;;12.50;;
2644;SDS011;15377;48.540;9.268;2023-08-21T02:39:37;17.30;;;12.87;;
2644;SDS011;15377;48.540;9.268;2023-08-21T02:42:03;18.63;;;12.67;;
2644;SDS011;15377;48.540;9.268;2023-08-21T02:44:28;16.00;;;11.80;;
2644;SDS011;15377;48.540;9.268;2023-08-21T02:46:53;16.70;;;12.53;;
2644;SDS011;15377;48.540;9.268;2023-08-21T02:49:19;16.23;;;12.90;;
2644;SDS011;15377;48.540;9.268;2023-08-21T02:51:44;21.67;;;13.80;;
2644;SDS011;15377;48.540;9.268;2023-08-21T02:54:09;17.70;;;13.10;;
2644;SDS011;15377;48.540;9.268;2023-08-21T02:56:35;19.43;;;13.47;;
2644;SDS011;15377;48.540;9.268;2023-08-21T02:59:01;16.50;;;13.30;;
2644;SDS011;15377;48.540;9.268;2023-08-21T03:01:26;19.67;;;12.80;;
2644;SDS011;15377;48.540;9.268;2023-08-21T03:03:51;16.27;;;13.43;;
2644;SDS011;15377;48.540;9.268;2023-08-21T03:06:17;17.47;;;13.27;;
2644;SDS011;15377;48.540;9.268;2023-08-21T03:08:42;16.43;;;12.37;;
2644;SDS011;15377;48.540;9.268;2023-08-21T03:11:09;16.00;;;12.10;;
2644;SDS011;15377;48.540;9.268;2023-08-21T03:13:34;15.97;;;12.63;;
2644;SDS011;15377;48.540;9.268;2023-08-21T03:16:00;14.80;;;12.40;;
2644;SDS011;15377;48.540;9.268;2023-08-21T03:18:29;18.53;;;12.00;;
2644;SDS011;15377;48.540;9.268;2023-08-21T03:20:56;16.63;;;11.83;;
2644;SDS011;15377;48.540;9.268;2023-08-21T03:23:21;17.10;;;11.80;;
2644;SDS011;15377;48.540;9.268;2023-08-21T03:25:47;20.40;;;12.20;;
2644;SDS011;15377;48.540;9.268;2023-08-21T03:28:12;15.40;;;12.00;;
2644;SDS011;15377;48.540;9.268;2023-08-21T03:30:41;16.00;;;11.97;;
2644;SDS011;15377;48.540;9.268;2023-08-21T03:33:06;15.47;;;12.00;;
2644;SDS011;15377;48.540;9.268;2023-08-21T03:35:33;15.60;;;11.63;;
2644;SDS011;15377;48.540;9.268;2023-08-21T03:37:58;16.90;;;12.87;;
2644;SDS011;15377;48.540;9.268;2023-08-21T03:40:23;19.33;;;11.73;;
2644;SDS011;15377;48.540;9.268;2023-08-21T03:42:49;18.23;;;11.70;;
2644;SDS011;15377;48.540;9.268;2023-08-21T03:45:14;18.00;;;13.33;;
2644;SDS011;15377;48.540;9.268;2023-08-21T03:47:39;15.20;;;13.10;;
2644;SDS011;15377;48.540;9.268;2023-08-21T03:50:05;19.57;;;12.60;;
2644;SDS011;15377;48.540;9.268;2023-08-21T03:52:31;14.67;;;10.57;;
2644;SDS011;15377;48.540;9.268;2023-08-21T03:54:56;15.53;;;12.43;;
2644;SDS011;15377;48.540;9.268;2023-08-21T03:57:21;16.23;;;12.30;;
2644;SDS011;15377;48.540;9.268;2023-08-21T03:59:47;16.30;;;12.30;;
2644;SDS011;15377;48.540;9.268;2023-08-21T04:02:12;14.30;;;11.40;;
2644;SDS011;15377;48.540;9.268;2023-08-21T04:04:37;15.07;;;11.73;;
2644;SDS011;15377;48.540;9.268;2023-08-21T04:07:03;16.20;;;11.83;;
2644;SDS011;15377;48.540;9.268;2023-08-21T04:09:28;15.70;;;11.73;;
2644;SDS011;15377;48.540;9.268;2023-08-21T04:11:53;17.60;;;13.20;;
2644;SDS011;15377;48.540;9.268;2023-08-21T04:14:19;20.90;;;12.77;;
2644;SDS011;15377;48.540;9.268;2023-08-21T04:16:44;19.53;;;12.27;;
2644;SDS011;15377;48.540;9.268;2023-08-21T04:19:09;17.53;;;13.00;;
2644;SDS011;15377;48.540;9.268;2023-08-21T04:21:35;18.57;;;14.10;;
2644;SDS011;15377;48.540;9.268;2023-08-21T04:24:00;16.30;;;11.63;;
2644;SDS011;15377;48.540;9.268;2023-08-21T04:26:25;20.47;;;15.00;;
2644;SDS011;15377;48.540;9.268;2023-08-21T04:28:52;19.83;;;14.90;;
2644;SDS011;15377;48.540;9.268;2023-08-21T04:31:17;19.40;;;12.80;;
2644;SDS011;15377;48.540;9.268;2023-08-21T04:33:42;16.50;;;13.77;;
2644;SDS011;15377;48.540;9.268;2023-08-21T04:36:13;21.00;;;13.40;;
2644;SDS011;15377;48.540;9.268;2023-08-21T04:38:39;18.77;;;13.40;;
2644;SDS011;15377;48.540;9.268;2023-08-21T04:41:08;18.70;;;13.10;;
2644;SDS011;15377;48.540;9.268;2023-08-21T04:43:34;17.70;;;13.90;;
2644;SDS011;15377;48.540;9.268;2023-08-21T04:45:59;17.83;;;13.77;;
2644;SDS011;15377;48.540;9.268;2023-08-21T04:48:25;16.27;;;13.03;;
2644;SDS011;15377;48.540;9.268;2023-08-21T04:50:50;19.03;;;14.53;;
2644;SDS011;15377;48.540;9.268;2023-08-21T04:53:15;21.30;;;13.77;;
2644;SDS011;15377;48.540;9.268;2023-08-21T04:55:41;20.70;;;13.10;;
2644;SDS011;15377;48.540;9.268;2023-08-21T04:58:07;16.67;;;13.40;;
2644;SDS011;15377;48.540;9.268;2023-08-21T05:00:33;18.03;;;13.17;;
2644;SDS011;15377;48.540;9.268;2023-08-21T05:02:58;20.00;;;14.00;;
2644;SDS011;15377;48.540;9.268;2023-08-21T05:05:24;16.67;;;12.73;;
2644;SDS011;15377;48.540;9.268;2023-08-21T05:07:49;18.33;;;13.70;;
2644;SDS011;15377;48.540;9.268;2023-08-21T05:10:15;19.40;;;14.60;;
2644;SDS011;15377;48.540;9.268;2023-08-21T05:12:40;20.47;;;14.23;;
2644;SDS011;15377;48.540;9.268;2023-08-21T05:15:06;21.03;;;14.50;;
2644;SDS011;15377;48.540;9.268;2023-08-21T05:17:31;20.43;;;14.30;;
2644;SDS011;15377;48.540;9.268;2023-08-21T05:19:57;17.57;;;13.40;;
2644;SDS011;15377;48.540;9.268;2023-08-21T05:22:22;18.67;;;13.93;;
2644;SDS011;15377;48.540;9.268;2023-08-21T05:24:47;17.70;;;12.90;;
2644;SDS011;15377;48.540;9.268;2023-08-21T05:27:13;21.53;;;16.27;;
2644;SDS011;15377;48.540;9.268;2023-08-21T05:29:38;17.67;;;13.50;;
2644;SDS011;15377;48.540;9.268;2023-08-21T05:32:04;19.10;;;14.60;;
2644;SDS011;15377;48.540;9.268;2023-08-21T05:34:30;18.33;;;14.80;;
2644;SDS011;15377;48.540;9.268;2023-08-21T05:36:55;20.20;;;15.83;;
2644;SDS011;15377;48.540;9.268;2023-08-21T05:39:21;19.47;;;14.73;;
2644;SDS011;15377;48.540;9.268;2023-08-21T05:41:46;19.57;;;14.47;;
2644;SDS011;15377;48.540;9.268;2023-08-21T05:44:11;19.73;;;14.50;;
2644;SDS011;15377;48.540;9.268;2023-08-21T05:46:37;22.23;;;14.00;;
2644;SDS011;15377;48.540;9.268;2023-08-21T05:49:03;20.73;;;14.47;;
2644;SDS011;15377;48.540;9.268;2023-08-21T05:51:28;20.93;;;15.73;;
2644;SDS011;15377;48.540;9.268;2023-08-21T05:53:53;20.43;;;14.43;;
2644;SDS011;15377;48.540;9.268;2023-08-21T05:56:19;18.67;;;14.70;;
2644;SDS011;15377;48.540;9.268;2023-08-21T05:58:44;22.40;;;16.37;;
2644;SDS011;15377;48.540;9.268;2023-08-21T06:01:10;21.83;;;15.07;;
2644;SDS011;15377;48.540;9.268;2023-08-21T06:03:36;18.37;;;14.40;;
2644;SDS011;15377;48.540;9.268;2023-08-21T06:06:01;20.17;;;14.87;;
2644;SDS011;15377;48.540;9.268;2023-08-21T06:08:26;19.03;;;14.03;;
2644;SDS011;15377;48.540;9.268;2023-08-21T06:10:52;18.20;;;14.07;;
2644;SDS011;15377;48.540;9.268;2023-08-21T06:13:17;20.37;;;14.97;;
2644;SDS011;15377;48.540;9.268;2023-08-21T06:15:43;16.50;;;13.20;;
2644;SDS011;15377;48.540;9.268;2023-08-21T06:18:10;17.00;;;13.33;;
2644;SDS011;15377;48.540;9.268;2023-08-21T06:20:35;19.03;;;14.17;;
2644;SDS011;15377;48.540;9.268;2023-08-21T06:23:01;16.77;;;13.50;;
2644;SDS011;15377;48.540;9.268;2023-08-21T06:25:26;15.80;;;12.10;;
2644;SDS011;15377;48.540;9.268;2023-08-21T06:27:51;20.13;;;13.97;;
2644;SDS011;15377;48.540;9.268;2023-08-21T06:30:17;16.43;;;13.30;;
2644;SDS011;15377;48.540;9.268;2023-08-21T06:32:43;17.63;;;14.13;;
2644;SDS011;15377;48.540;9.268;2023-08-21T06:35:09;17.47;;;12.73;;
2644;SDS011;15377;48.540;9.268;2023-08-21T06:37:34;17.27;;;12.03;;
2644;SDS011;15377;48.540;9.268;2023-08-21T06:39:59;17.60;;;13.43;;
2644;SDS011;15377;48.540;9.268;2023-08-21T06:42:25;16.10;;;12.40;;
2644;SDS011;15377;48.540;9.268;2023-08-21T06:44:50;18.03;;;13.03;;
2644;SDS011;15377;48.540;9.268;2023-08-21T06:47:15;17.90;;;13.03;;
2644;SDS011;15377;48.540;9.268;2023-08-21T06:49:41;14.63;;;12.43;;
2644;SDS011;15377;48.540;9.268;2023-08-21T06:52:06;16.67;;;12.90;;
2644;SDS011;15377;48.540;9.268;2023-08-21T06:54:31;17.50;;;12.13;;
2644;SDS011;15377;48.540;9.268;2023-08-21T06:56:57;16.53;;;11.50;;
2644;SDS011;15377;48.540;9.268;2023-08-21T06:59:23;16.33;;;12.80;;
2644;SDS011;15377;48.540;9.268;2023-08-21T07:01:49;15.20;;;11.57;;
2644;SDS011;15377;48.540;9.268;2023-08-21T07:04:15;15.23;;;11.87;;
2644;SDS011;15377;48.540;9.268;2023-08-21T07:06:41;19.07;;;12.23;;
2644;SDS011;15377;48.540;9.268;2023-08-21T07:09:06;16.33;;;10.73;;
2644;SDS011;15377;48.540;9.268;2023-08-21T07:11:32;14.23;;;11.27;;
2644;SDS011;15377;48.540;9.268;2023-08-21T07:13:57;15.10;;;10.90;;
2644;SDS011;15377;48.540;9.268;2023-08-21T07:16:22;13.57;;;11.50;;
2644;SDS011;15377;48.540;9.268;2023-08-21T07:18:48;15.50;;;11.50;;
2644;SDS011;15377;48.540;9.268;2023-08-21T07:21:13;18.90;;;11.87;;
2644;SDS011;15377;48.540;9.268;2023-08-21T07:23:38;17.03;;;10.93;;
2644;SDS011;15377;48.540;9.268;2023-08-21T07:26:04;12.40;;;10.07;;
2644;SDS011;15377;48.540;9.268;2023-08-21T07:28:32;14.40;;;11.60;;
2644;SDS011;15377;48.540;9.268;2023-08-21T07:30:57;15.50;;;10.40;;
2644;SDS011;15377;48.540;9.268;2023-08-21T07:33:23;14.50;;;10.47;;
2644;SDS011;15377;48.540;9.268;2023-08-21T07:35:59;15.83;;;11.17;;
2644;SDS011;15377;48.540;9.268;2023-08-21T07:38:26;15.30;;;10.90;;
2644;SDS011;15377;48.540;9.268;2023-08-21T07:40:51;14.00;;;10.40;;
2644;SDS011;15377;48.540;9.268;2023-08-21T07:43:26;13.83;;;10.90;;
2644;SDS011;15377;48.540;9.268;2023-08-21T07:45:51;14.77;;;10.80;;
2644;SDS011;15377;48.540;9.268;2023-08-21T07:48:17;16.00;;;9.73;;
2644;SDS011;15377;48.540;9.268;2023-08-21T07:50:49;14.97;;;10.80;;
2644;SDS011;15377;48.540;9.268;2023-08-21T07:53:16;14.80;;;11.17;;
2644;SDS011;15377;48.540;9.268;2023-08-21T07:55:41;14.00;;;9.47;;
2644;SDS011;15377;48.540;9.268;2023-08-21T07:58:06;13.07;;;10.47;;
2644;SDS011;15377;48.540;9.268;2023-08-21T08:00:32;14.80;;;10.23;;
2644;SDS011;15377;48.540;9.268;2023-08-21T08:02:57;12.50;;;9.40;;
2644;SDS011;15377;48.540;9.268;2023-08-21T08:05:23;16.20;;;9.93;;
2644;SDS011;15377;48.540;9.268;2023-08-21T08:07:48;14.73;;;10.53;;
2644;SDS011;15377;48.540;9.268;2023-08-21T08:10:14;12.40;;;9.67;;
2644;SDS011;15377;48.540;9.268;2023-08-21T08:12:41;15.50;;;10.87;;
2644;SDS011;15377;48.540;9.268;2023-08-21T08:15:07;15.13;;;9.57;;
2644;SDS011;15377;48.540;9.268;2023-08-21T08:17:33;13.07;;;9.40;;
2644;SDS011;15377;48.540;9.268;2023-08-21T08:19:58;14.40;;;10.03;;
2644;SDS011;15377;48.540;9.268;2023-08-21T08:22:23;12.70;;;9.67;;
2644;SDS011;15377;48.540;9.268;2023-08-21T08:24:49;13.30;;;9.03;;
2644;SDS011;15377;48.540;9.268;2023-08-21T08:27:14;11.50;;;9.10;;
2644;SDS011;15377;48.540;9.268;2023-08-21T08:29:40;12.50;;;8.43;;
2644;SDS011;15377;48.540;9.268;2023-08-21T08:32:05;13.20;;;10.20;;
2644;SDS011;15377;48.540;9.268;2023-08-21T08:34:31;13.67;;;9.80;;
2644;SDS011;15377;48.540;9.268;2023-08-21T08:36:56;12.23;;;9.67;;
2644;SDS011;15377;48.540;9.268;2023-08-21T08:39:21;12.33;;;9.07;;
2644;SDS011;15377;48.540;9.268;2023-08-21T08:41:54;12.40;;;10.33;;
2644;SDS011;15377;48.540;9.268;2023-08-21T08:44:23;17.10;;;9.87;;
2644;SDS011;15377;48.540;9.268;2023-08-21T08:46:51;12.27;;;8.93;;
2644;SDS011;15377;48.540;9.268;2023-08-21T08:49:17;12.87;;;9.73;;
2644;SDS011;15377;48.540;9.268;2023-08-21T08:51:43;13.20;;;10.07;;
2644;SDS011;15377;48.540;9.268;2023-08-21T08:54:09;14.63;;;9.90;;
2644;SDS011;15377;48.540;9.268;2023-08-21T08:56:37;11.27;;;9.40;;
2644;SDS011;15377;48.540;9.268;2023-08-21T08:59:03;13.97;;;9.80;;
2644;SDS011;15377;48.540;9.268;2023-08-21T09:01:28;12.47;;;9.40;;
2644;SDS011;15377;48.540;9.268;2023-08-21T09:03:54;14.40;;;10.50;;
2644;SDS011;15377;48.540;9.268;2023-08-21T09:06:19;12.53;;;9.67;;
2644;SDS011;15377;48.540;9.268;2023-08-21T09:08:54;12.20;;;8.60;;
2644;SDS011;15377;48.540;9.268;2023-08-21T09:11:20;11.53;;;9.40;;
2644;SDS011;15377;48.540;9.268;2023-08-21T09:13:45;12.77;;;8.37;;
2644;SDS011;15377;48.540;9.268;2023-08-21T09:16:16;11.70;;;8.80;;
2644;SDS011;15377;48.540;9.268;2023-08-21T09:18:46;12.03;;;9.40;;
2644;SDS011;15377;48.540;9.268;2023-08-21T09:21:16;11.70;;;9.53;;
2644;SDS011;15377;48.540;9.268;2023-08-21T09:23:42;12.87;;;8.87;;
2644;SDS011;15377;48.540;9.268;2023-08-21T09:26:07;12.70;;;9.30;;
2644;SDS011;15377;48.540;9.268;2023-08-21T09:28:33;13.00;;;9.40;;
2644;SDS011;15377;48.540;9.268;2023-08-21T09:30:59;12.57;;;9.33;;
2644;SDS011;15377;48.540;9.268;2023-08-21T09:33:25;11.30;;;8.10;;
2644;SDS011;15377;48.540;9.268;2023-08-21T09:35:51;11.80;;;9.67;;
2644;SDS011;15377;48.540;9.268;2023-08-21T09:38:17;12.57;;;9.50;;
2644;SDS011;15377;48.540;9.268;2023-08-21T09:40:53;12.40;;;8.33;;
2644;SDS011;15377;48.540;9.268;2023-08-21T09:43:23;12.23;;;7.93;;
2644;SDS011;15377;48.540;9.268;2023-08-21T09:45:53;16.33;;;9.30;;
2644;SDS011;15377;48.540;9.268;2023-08-21T09:48:23;12.20;;;9.33;;
2644;SDS011;15377;48.540;9.268;2023-08-21T09:50:52;11.20;;;8.07;;
2644;SDS011;15377;48.540;9.268;2023-08-21T09:53:17;11.37;;;7.90;;
2644;SDS011;15377;48.540;9.268;2023-08-21T09:55:44;13.93;;;7.97;;
2644;SDS011;15377;48.540;9.268;2023-08-21T09:58:10;11.10;;;8.27;;
2644;SDS011;15377;48.540;9.268;2023-08-21T10:00:36;11.17;;;8.20;;
2644;SDS011;15377;48.540;9.268;2023-08-21T10:03:03;11.70;;;8.20;;
2644;SDS011;15377;48.540;9.268;2023-08-21T10:05:32;10.10;;;7.07;;
2644;SDS011;15377;48.540;9.268;2023-08-21T10:08:00;12.23;;;8.00;;
2644;SDS011;15377;48.540;9.268;2023-08-21T10:10:31;10.90;;;7.40;;
2644;SDS011;15377;48.540;9.268;2023-08-21T10:12:58;14.40;;;8.93;;
2644;SDS011;15377;48.540;9.268;2023-08-21T10:15:25;10.00;;;7.13;;
2644;SDS011;15377;48.540;9.268;2023-08-21T10:17:52;9.17;;;7.50;;
2644;SDS011;15377;48.540;9.268;2023-08-21T10:20:21;9.70;;;7.23;;
2644;SDS011;15377;48.540;9.268;2023-08-21T10:22:48;14.10;;;8.03;;
2644;SDS011;15377;48.540;9.268;2023-08-21T10:25:15;11.70;;;6.80;;
2644;SDS011;15377;48.540;9.268;2023-08-21T10:27:56;13.23;;;7.63;;
2644;SDS011;15377;48.540;9.268;2023-08-21T10:30:23;10.30;;;7.50;;
2644;SDS011;15377;48.540;9.268;2023-08-21T10:32:57;11.83;;;6.50;;
2644;SDS011;15377;48.540;9.268;2023-08-21T10:35:24;10.80;;;7.70;;
2644;SDS011;15377;48.540;9.268;2023-08-21T10:40:37;12.30;;;7.77;;
2644;SDS011;15377;48.540;9.268;2023-08-21T10:43:03;9.00;;;6.60;;
2644;SDS011;15377;48.540;9.268;2023-08-21T10:45:29;9.30;;;6.80;;
2644;SDS011;15377;48.540;9.268;2023-08-21T10:47:56;12.33;;;6.87;;
2644;SDS011;15377;48.540;9.268;2023-08-21T10:50:23;10.80;;;6.60;;
2644;SDS011;15377;48.540;9.268;2023-08-21T10:52:48;9.13;;;6.70;;
2644;SDS011;15377;48.540;9.268;2023-08-21T10:55:17;10.67;;;7.70;;
2644;SDS011;15377;48.540;9.268;2023-08-21T10:57:49;10.80;;;7.60;;
2644;SDS011;15377;48.540;9.268;2023-08-21T11:00:15;9.53;;;7.40;;
2644;SDS011;15377;48.540;9.268;2023-08-21T11:02:44;8.27;;;5.97;;
2644;SDS011;15377;48.540;9.268;2023-08-21T11:05:11;8.70;;;7.00;;
2644;SDS011;15377;48.540;9.268;2023-08-21T11:07:41;9.53;;;6.47;;
2644;SDS011;15377;48.540;9.268;2023-08-21T11:10:18;11.97;;;6.87;;
2644;SDS011;15377;48.540;9.268;2023-08-21T11:12:53;10.90;;;6.53;;
2644;SDS011;15377;48.540;9.268;2023-08-21T11:15:22;9.60;;;6.50;;
2644;SDS011;15377;48.540;9.268;2023-08-21T11:17:58;8.43;;;5.93;;
2644;SDS011;15377;48.540;9.268;2023-08-21T11:20:28;10.17;;;6.30;;
2644;SDS011;15377;48.540;9.268;2023-08-21T11:23:02;11.23;;;7.20;;
2644;SDS011;15377;48.540;9.268;2023-08-21T11:25:31;11.30;;;7.30;;
2644;SDS011;15377;48.540;9.268;2023-08-21T11:27:58;8.80;;;6.47;;
2644;SDS011;15377;48.540;9.268;2023-08-21T11:30:23;9.57;;;6.53;;
2644;SDS011;15377;48.540;9.268;2023-08-21T11:32:49;9.37;;;6.80;;
2644;SDS011;15377;48.540;9.268;2023-08-21T11:35:29;10.87;;;6.60;;
2644;SDS011;15377;48.540;9.268;2023-08-21T11:37:54;9.53;;;6.27;;
2644;SDS011;15377;48.540;9.268;2023-08-21T11:40:19;9.30;;;6.30;;
2644;SDS011;15377;48.540;9.268;2023-08-21T11:42:45;9.13;;;7.03;;
2644;SDS011;15377;48.540;9.268;2023-08-21T11:45:10;10.67;;;6.83;;
2644;SDS011;15377;48.540;9.268;2023-08-21T11:47:36;11.00;;;6.90;;
2644;SDS011;15377;48.540;9.268;2023-08-21T11:50:02;10.90;;;6.87;;
2644;SDS011;15377;48.540;9.268;2023-08-21T11:52:32;9.03;;;6.87;;
2644;SDS011;15377;48.540;9.268;2023-08-21T11:54:57;8.90;;;6.33;;
2644;SDS011;15377;48.540;9.268;2023-08-21T11:57:23;11.27;;;6.47;;
2644;SDS011;15377;48.540;9.268;2023-08-21T11:59:49;8.57;;;6.77;;
2644;SDS011;15377;48.540;9.268;2023-08-21T12:02:22;9.80;;;6.53;;
2644;SDS011;15377;48.540;9.268;2023-08-21T12:05:13;9.67;;;6.70;;
2644;SDS011;15377;48.540;9.268;2023-08-21T12:07:39;9.37;;;6.70;;
2644;SDS011;15377;48.540;9.268;2023-08-21T12:10:04;9.37;;;7.00;;
2644;SDS011;15377;48.540;9.268;2023-08-21T12:12:30;10.30;;;7.00;;
2644;SDS011;15377;48.540;9.268;2023-08-21T12:14:56;9.57;;;7.10;;
2644;SDS011;15377;48.540;9.268;2023-08-21T12:17:22;9.20;;;6.30;;
2644;SDS011;15377;48.540;9.268;2023-08-21T12:19:47;12.50;;;7.87;;
2644;SDS011;15377;48.540;9.268;2023-08-21T12:22:12;10.50;;;6.80;;
2644;SDS011;15377;48.540;9.268;2023-08-21T12:24:38;10.80;;;6.83;;
2644;SDS011;15377;48.540;9.268;2023-08-21T12:27:03;10.43;;;7.73;;
2644;SDS011;15377;48.540;9.268;2023-08-21T12:29:29;13.00;;;7.40;;
2644;SDS011;15377;48.540;9.268;2023-08-21T12:31:55;9.97;;;6.80;;
2644;SDS011;15377;48.540;9.268;2023-08-21T12:34:20;11.10;;;7.20;;
2644;SDS011;15377;48.540;9.268;2023-08-21T12:36:46;9.60;;;7.10;;
2644;SDS011;15377;48.540;9.268;2023-08-21T12:39:11;12.10;;;8.27;;
2644;SDS011;15377;48.540;9.268;2023-08-21T12:41:37;12.03;;;7.50;;
2644;SDS011;15377;48.540;9.268;2023-08-21T12:44:02;11.90;;;6.70;;
2644;SDS011;15377;48.540;9.268;2023-08-21T12:46:28;10.00;;;7.43;;
2644;SDS011;15377;48.540;9.268;2023-08-21T12:48:55;9.83;;;7.00;;
2644;SDS011;15377;48.540;9.268;2023-08-21T12:51:25;11.63;;;7.40;;
2644;SDS011;15377;48.540;9.268;2023-08-21T12:53:50;9.70;;;6.77;;
2644;SDS011;15377;48.540;9.268;2023-08-21T12:56:16;10.93;;;8.17;;
2644;SDS011;15377;48.540;9.268;2023-08-21T12:58:41;15.80;;;8.37;;
2644;SDS011;15377;48.540;9.268;2023-08-21T13:01:07;11.70;;;7.40;;
2644;SDS011;15377;48.540;9.268;2023-08-21T13:03:33;10.37;;;7.20;;
2644;SDS011;15377;48.540;9.268;2023-08-21T13:05:58;13.80;;;8.10;;
2644;SDS011;15377;48.540;9.268;2023-08-21T13:08:24;11.73;;;7.43;;
2644;SDS011;15377;48.540;9.268;2023-08-21T13:10:49;11.13;;;8.50;;
2644;SDS011;15377;48.540;9.268;2023-08-21T13:13:15;9.50;;;7.30;;
2644;SDS011;15377;48.540;9.268;2023-08-21T13:15:40;11.40;;;8.70;;
2644;SDS011;15377;48.540;9.268;2023-08-21T13:18:09;12.37;;;7.70;;
2644;SDS011;15377;48.540;9.268;2023-08-21T13:20:34;10.47;;;7.70;;
2644;SDS011;15377;48.540;9.268;2023-08-21T13:23:00;11.17;;;7.77;;
2644;SDS011;15377;48.540;9.268;2023-08-21T13:25:25;11.60;;;8.10;;
2644;SDS011;15377;48.540;9.268;2023-08-21T13:27:51;11.70;;;7.70;;
2644;SDS011;15377;48.540;9.268;2023-08-21T13:30:17;12.40;;;8.30;;
2644;SDS011;15377;48.540;9.268;2023-08-21T13:32:43;10.27;;;7.50;;
2644;SDS011;15377;48.540;9.268;2023-08-21T13:35:08;9.77;;;7.30;;
2644;SDS011;15377;48.540;9.268;2023-08-21T13:37:34;10.87;;;7.60;;
2644;SDS011;15377;48.540;9.268;2023-08-21T13:40:01;10.37;;;7.13;;
2644;SDS011;15377;48.540;9.268;2023-08-21T13:42:33;10.50;;;7.30;;
2644;SDS011;15377;48.540;9.268;2023-08-21T13:45:02;9.77;;;7.50;;
2644;SDS011;15377;48.540;9.268;2023-08-21T13:47:28;10.17;;;7.00;;
2644;SDS011;15377;48.540;9.268;2023-08-21T13:49:53;10.40;;;7.27;;
2644;SDS011;15377;48.540;9.268;2023-08-21T13:52:19;11.30;;;6.50;;
2644;SDS011;15377;48.540;9.268;2023-08-21T13:54:44;8.50;;;6.20;;
2644;SDS011;15377;48.540;9.268;2023-08-21T13:57:09;9.47;;;6.90;;
2644;SDS011;15377;48.540;9.268;2023-08-21T13:59:34;9.47;;;6.73;;
2644;SDS011;15377;48.540;9.268;2023-08-21T14:02:00;9.50;;;7.13;;
2644;SDS011;15377;48.540;9.268;2023-08-21T14:04:25;9.37;;;6.60;;
2644;SDS011;15377;48.540;9.268;2023-08-21T14:06:50;10.50;;;7.17;;
2644;SDS011;15377;48.540;9.268;2023-08-21T14:09:16;9.63;;;7.07;;
2644;SDS011;15377;48.540;9.268;2023-08-21T14:11:41;10.33;;;6.90;;
2644;SDS011;15377;48.540;9.268;2023-08-21T14:14:08;10.87;;;6.83;;
2644;SDS011;15377;48.540;9.268;2023-08-21T14:16:33;9.30;;;6.27;;
2644;SDS011;15377;48.540;9.268;2023-08-21T14:18:59;9.53;;;6.70;;
2644;SDS011;15377;48.540;9.268;2023-08-21T14:21:24;9.37;;;6.13;;
2644;SDS011;15377;48.540;9.268;2023-08-21T14:23:49;9.30;;;6.70;;
2644;SDS011;15377;48.540;9.268;2023-08-21T14:26:15;9.80;;;6.47;;
2644;SDS011;15377;48.540;9.268;2023-08-21T14:28:40;8.80;;;5.63;;
2644;SDS011;15377;48.540;9.268;2023-08-21T14:31:05;8.77;;;6.50;;
2644;SDS011;15377;48.540;9.268;2023-08-21T14:33:30;11.53;;;6.60;;
2644;SDS011;15377;48.540;9.268;2023-08-21T14:35:56;8.93;;;6.10;;
2644;SDS011;15377;48.540;9.268;2023-08-21T14:38:22;10.70;;;6.20;;
2644;SDS011;15377;48.540;9.268;2023-08-21T14:40:47;8.97;;;6.47;;
2644;SDS011;15377;48.540;9.268;2023-08-21T14:43:12;8.50;;;6.40;;
2644;SDS011;15377;48.540;9.268;2023-08-21T14:45:38;9.73;;;5.90;;